createdAt,value
2018-07-11T00:02:14.998Z,92.40
2018-07-11T00:04:43.151Z,92.30
2018-07-11T00:07:11.320Z,91.80
2018-07-11T00:09:39.467Z,92.20
2018-07-11T00:12:07.645Z,92.10
2018-07-11T00:14:35.791Z,91.60
2018-07-11T00:17:05.980Z,91.30
2018-07-11T00:19:35.218Z,91.60
2018-07-11T00:22:03.376Z,91.70
2018-07-11T00:24:31.547Z,91.60
2018-07-11T00:26:59.708Z,90.70
2018-07-11T00:29:27.884Z,90.20
2018-07-11T00:34:23.992Z,90.30
2018-07-11T00:36:52.163Z,90.80
2018-07-11T00:39:20.343Z,90.50
2018-07-11T00:41:48.506Z,90.30
2018-07-11T00:44:16.697Z,89.60
2018-07-11T00:46:44.859Z,90.10
2018-07-11T00:49:13.028Z,91.10
2018-07-11T00:51:41.199Z,91.00
2018-07-11T00:54:09.372Z,90.80
2018-07-11T00:56:37.566Z,90.90
2018-07-11T00:59:10.782Z,91.40
2018-07-11T01:01:40.976Z,92.00
2018-07-11T01:04:09.150Z,91.60
2018-07-11T01:06:37.328Z,92.40
2018-07-11T01:09:05.509Z,92.60
2018-07-11T01:11:36.158Z,91.90
2018-07-11T01:14:04.373Z,91.00
2018-07-11T01:16:32.864Z,90.60
2018-07-11T01:19:03.821Z,90.30
2018-07-11T01:21:32.647Z,90.40
2018-07-11T01:24:00.851Z,90.80
2018-07-11T01:26:30.217Z,91.60
2018-07-11T01:28:58.404Z,90.40
2018-07-11T01:33:55.468Z,91.70
2018-07-11T01:36:23.926Z,91.40
2018-07-11T01:38:52.112Z,91.00
2018-07-11T01:41:20.262Z,90.90
2018-07-11T01:43:48.451Z,91.40
2018-07-11T01:46:16.629Z,92.00
2018-07-11T01:48:45.331Z,91.20
2018-07-11T01:51:13.524Z,90.90
2018-07-11T01:53:41.687Z,91.00
2018-07-11T01:56:09.857Z,91.00
2018-07-11T01:58:38.484Z,91.20
2018-07-11T02:01:06.749Z,92.20
2018-07-11T02:03:34.930Z,92.70
2018-07-11T02:06:03.096Z,92.80
2018-07-11T02:08:31.276Z,92.90
2018-07-11T02:10:59.784Z,93.10
2018-07-11T02:13:28.295Z,92.90
2018-07-11T02:15:57.110Z,92.30
2018-07-11T02:18:27.216Z,91.30
2018-07-11T02:20:55.892Z,91.30
2018-07-11T02:23:25.267Z,91.70
2018-07-11T02:25:53.424Z,92.00
2018-07-11T02:28:21.622Z,92.10
2018-07-11T02:30:49.776Z,92.40
2018-07-11T02:33:17.987Z,91.90
2018-07-11T02:35:46.117Z,91.40
2018-07-11T02:38:14.282Z,92.40
2018-07-11T02:40:42.449Z,92.70
2018-07-11T02:43:10.616Z,92.60
2018-07-11T02:45:38.779Z,92.40
2018-07-11T02:48:06.939Z,92.40
2018-07-11T02:53:03.048Z,92.00
2018-07-11T02:55:31.252Z,91.40
2018-07-11T02:57:59.418Z,91.90
2018-07-11T03:00:27.615Z,91.70
2018-07-11T03:02:55.801Z,91.90
2018-07-11T03:05:26.445Z,92.30
2018-07-11T03:07:54.635Z,92.30
2018-07-11T03:10:22.833Z,92.40
2018-07-11T03:12:51.012Z,93.20
2018-07-11T03:15:19.204Z,93.20
2018-07-11T03:17:47.388Z,92.50
2018-07-11T03:22:43.533Z,91.60
2018-07-11T03:25:11.716Z,91.70
2018-07-11T03:27:39.915Z,92.00
2018-07-11T03:30:08.122Z,92.40
2018-07-11T03:32:36.375Z,92.50
2018-07-11T03:35:04.514Z,93.00
2018-07-11T03:37:32.693Z,93.90
2018-07-11T03:40:00.884Z,92.70
2018-07-11T03:42:29.060Z,93.10
2018-07-11T03:44:57.266Z,93.00
2018-07-11T03:47:25.460Z,92.30
2018-07-11T03:49:53.667Z,92.10
2018-07-11T03:52:21.836Z,92.20
2018-07-11T03:54:50.037Z,92.90
2018-07-11T03:57:18.208Z,92.90
2018-07-11T03:59:46.380Z,92.70
2018-07-11T04:02:14.544Z,92.60
2018-07-11T04:04:42.733Z,92.80
2018-07-11T04:07:10.894Z,92.40
2018-07-11T04:09:39.048Z,92.70
2018-07-11T04:12:07.221Z,91.80
2018-07-11T04:14:35.404Z,91.80
2018-07-11T04:17:03.580Z,92.20
2018-07-11T04:19:31.772Z,92.40
2018-07-11T04:21:59.944Z,92.20
2018-07-11T04:24:28.109Z,92.10
2018-07-11T04:26:56.289Z,92.60
2018-07-11T04:29:24.460Z,93.30
2018-07-11T04:31:52.642Z,93.20
2018-07-11T04:34:20.800Z,93.80
2018-07-11T04:36:48.975Z,92.90
2018-07-11T04:39:17.145Z,92.50
2018-07-11T04:41:45.314Z,92.70
2018-07-11T04:44:13.486Z,92.40
2018-07-11T04:46:41.685Z,93.30
2018-07-11T04:49:09.863Z,93.00
2018-07-11T04:51:38.057Z,92.80
2018-07-11T04:54:06.292Z,93.00
2018-07-11T04:56:34.528Z,92.90
2018-07-11T04:59:02.790Z,93.30
2018-07-11T05:01:30.983Z,92.80
2018-07-11T05:03:59.194Z,93.00
2018-07-11T05:06:27.375Z,92.90
2018-07-11T05:08:55.581Z,92.60
2018-07-11T05:11:23.788Z,92.80
2018-07-11T05:13:51.976Z,92.10
2018-07-11T05:16:20.276Z,92.60
2018-07-11T05:18:48.403Z,92.80
2018-07-11T05:21:16.623Z,93.00
2018-07-11T05:23:51.371Z,93.20
2018-07-11T05:26:19.543Z,93.10
2018-07-11T05:28:47.743Z,93.00
2018-07-11T05:31:16.000Z,93.00
2018-07-11T05:33:44.606Z,93.40
2018-07-11T05:36:12.810Z,93.20
2018-07-11T05:38:41.009Z,93.20
2018-07-11T05:41:09.204Z,92.70
2018-07-11T05:43:37.409Z,92.80
2018-07-11T05:46:06.321Z,93.00
2018-07-11T05:48:34.553Z,93.10
2018-07-11T05:51:02.879Z,93.30
2018-07-11T05:53:31.713Z,94.00
2018-07-11T05:55:59.933Z,93.30
2018-07-11T05:58:28.136Z,94.20
2018-07-11T06:00:56.336Z,94.10
2018-07-11T06:03:24.604Z,93.60
2018-07-11T06:05:52.795Z,92.70
2018-07-11T06:08:21.001Z,92.80
2018-07-11T06:10:49.191Z,93.60
2018-07-11T06:13:17.420Z,92.40
2018-07-11T06:15:45.621Z,91.40
2018-07-11T06:18:13.832Z,91.20
2018-07-11T06:20:42.036Z,91.60
2018-07-11T06:23:10.391Z,91.70
2018-07-11T06:25:38.689Z,92.60
2018-07-11T06:28:06.980Z,92.20
2018-07-11T06:30:35.118Z,92.10
2018-07-11T06:33:03.321Z,91.90
2018-07-11T06:35:31.505Z,91.70
2018-07-11T06:37:59.743Z,91.90
2018-07-11T06:40:27.950Z,91.50
2018-07-11T06:42:56.152Z,91.80
2018-07-11T06:45:24.367Z,91.50
2018-07-11T06:47:52.579Z,90.60
2018-07-11T06:50:20.765Z,90.40
2018-07-11T06:52:48.967Z,88.70
2018-07-11T06:55:17.166Z,89.60
2018-07-11T06:57:45.335Z,88.40
2018-07-11T07:00:13.544Z,89.70
2018-07-11T07:02:41.713Z,89.30
2018-07-11T07:05:09.905Z,87.20
2018-07-11T07:07:38.097Z,87.90
2018-07-11T07:10:06.304Z,90.20
2018-07-11T07:12:34.476Z,88.30
2018-07-11T07:15:02.680Z,89.00
2018-07-11T07:17:30.851Z,89.60
2018-07-11T07:19:59.055Z,89.50
2018-07-11T07:22:27.281Z,90.00
2018-07-11T07:24:55.418Z,89.40
2018-07-11T07:27:23.620Z,88.60
2018-07-11T07:29:51.835Z,86.80
2018-07-11T07:32:20.026Z,86.50
2018-07-11T07:34:48.263Z,86.50
2018-07-11T07:37:16.416Z,87.20
2018-07-11T07:42:12.550Z,83.40
2018-07-11T07:44:40.749Z,80.90
2018-07-11T07:47:13.186Z,81.80
2018-07-11T07:49:41.394Z,83.10
2018-07-11T07:52:09.580Z,83.20
2018-07-11T07:54:37.781Z,82.50
2018-07-11T07:57:06.017Z,83.10
2018-07-11T07:59:34.219Z,80.60
2018-07-11T08:02:02.554Z,78.60
2018-07-11T08:04:30.754Z,77.80
2018-07-11T08:06:59.013Z,79.50
2018-07-11T08:09:27.186Z,79.00
2018-07-11T08:11:55.387Z,79.60
2018-07-11T08:14:23.610Z,81.40
2018-07-11T08:16:51.804Z,79.60
2018-07-11T08:19:19.991Z,76.00
2018-07-11T08:21:48.216Z,78.80
2018-07-11T08:24:27.828Z,79.80
2018-07-11T08:27:07.428Z,76.20
2018-07-11T08:30:45.598Z,74.60
2018-07-11T08:33:24.016Z,72.50
2018-07-11T08:38:08.620Z,68.00
2018-07-11T08:40:51.886Z,69.50
2018-07-11T08:43:29.084Z,66.60
2018-07-11T08:48:11.048Z,68.90
2018-07-11T08:50:49.613Z,65.50
2018-07-11T08:54:38.712Z,70.60
2018-07-11T08:57:23.572Z,68.60
2018-07-11T09:00:03.237Z,71.10
2018-07-11T09:04:49.574Z,73.70
2018-07-11T09:07:58.254Z,71.50
2018-07-11T09:11:33.481Z,74.90
2018-07-11T09:14:16.891Z,74.00
2018-07-11T09:16:56.301Z,67.80
2018-07-11T09:19:34.433Z,67.80
2018-07-11T09:22:15.842Z,70.90
2018-07-11T09:24:45.120Z,70.40
2018-07-11T09:27:13.607Z,71.90
2018-07-11T09:29:42.705Z,63.40
2018-07-11T09:32:11.596Z,64.50
2018-07-11T09:34:39.852Z,63.40
2018-07-11T09:37:08.133Z,61.70
2018-07-11T09:39:36.335Z,60.50
2018-07-11T09:42:04.596Z,61.90
2018-07-11T09:44:32.928Z,60.50
2018-07-11T09:47:05.350Z,62.90
2018-07-11T09:49:34.185Z,61.40
2018-07-11T09:52:02.367Z,64.10
2018-07-11T09:54:30.563Z,62.50
2018-07-11T09:56:58.773Z,62.50
2018-07-11T09:59:27.600Z,61.10
2018-07-11T10:01:55.781Z,64.10
2018-07-11T10:04:24.364Z,64.40
2018-07-11T10:06:52.630Z,64.90
2018-07-11T10:09:20.819Z,64.20
2018-07-11T10:11:49.015Z,64.00
2018-07-11T10:14:17.186Z,64.20
2018-07-11T10:16:45.362Z,64.50
2018-07-11T10:19:13.520Z,62.10
2018-07-11T10:21:41.821Z,60.00
2018-07-11T10:24:09.920Z,58.30
2018-07-11T10:26:38.093Z,59.60
2018-07-11T10:29:06.273Z,56.10
2018-07-11T10:31:34.469Z,57.60
2018-07-11T10:34:02.671Z,59.80
2018-07-11T10:36:30.881Z,55.70
2018-07-11T10:38:59.078Z,55.80
2018-07-11T10:41:27.261Z,55.30
2018-07-11T10:43:55.455Z,58.50
2018-07-11T10:46:23.623Z,58.30
2018-07-11T10:48:51.829Z,56.20
2018-07-11T10:51:20.008Z,55.30
2018-07-11T10:53:48.218Z,55.20
2018-07-11T10:56:16.430Z,53.00
2018-07-11T10:58:44.649Z,53.60
2018-07-11T11:01:12.909Z,54.80
2018-07-11T11:03:41.084Z,55.10
2018-07-11T11:06:09.277Z,57.40
2018-07-11T11:08:37.492Z,57.90
2018-07-11T11:11:05.678Z,58.60
2018-07-11T11:13:33.907Z,58.90
2018-07-11T11:18:30.409Z,56.90
2018-07-11T11:20:58.615Z,59.60
2018-07-11T11:23:26.824Z,60.40
2018-07-11T11:25:55.023Z,59.30
2018-07-11T11:28:23.241Z,61.20
2018-07-11T11:30:51.427Z,58.70
2018-07-11T11:33:19.640Z,60.20
2018-07-11T11:35:47.878Z,60.30
2018-07-11T11:38:16.086Z,57.80
2018-07-11T11:40:44.299Z,58.70
2018-07-11T11:43:12.526Z,59.10
2018-07-11T11:45:40.740Z,57.80
2018-07-11T11:48:08.966Z,59.30
2018-07-11T11:50:37.206Z,59.10
2018-07-11T11:53:05.477Z,57.90
2018-07-11T11:55:33.684Z,57.70
2018-07-11T11:58:01.883Z,57.00
2018-07-11T12:00:30.070Z,58.70
2018-07-11T12:02:58.274Z,58.10
2018-07-11T12:05:26.545Z,55.60
2018-07-11T12:07:54.733Z,56.70
2018-07-11T12:10:22.930Z,55.80
2018-07-11T12:12:51.128Z,54.40
2018-07-11T12:15:19.306Z,55.00
2018-07-11T12:17:47.520Z,54.20
2018-07-11T12:20:15.703Z,54.30
2018-07-11T12:22:44.114Z,54.40
2018-07-11T12:25:12.317Z,51.90
2018-07-11T12:27:40.617Z,53.50
2018-07-11T12:30:08.832Z,56.00
2018-07-11T12:32:37.081Z,58.60
2018-07-11T12:35:05.280Z,57.10
2018-07-11T12:37:33.489Z,54.50
2018-07-11T12:40:01.724Z,54.80
2018-07-11T12:42:29.968Z,54.60
2018-07-11T12:44:58.156Z,56.40
2018-07-11T12:47:31.663Z,55.70
2018-07-11T12:49:59.868Z,56.30
2018-07-11T12:52:28.048Z,57.60
2018-07-11T12:57:25.213Z,56.00
2018-07-11T12:59:53.438Z,57.40
2018-07-11T13:02:21.674Z,56.50
2018-07-11T13:04:50.669Z,57.20
2018-07-11T13:07:18.872Z,58.50
2018-07-11T13:09:47.211Z,57.60
2018-07-11T13:12:15.406Z,59.30
2018-07-11T13:14:43.622Z,57.20
2018-07-11T13:17:11.820Z,56.50
2018-07-11T13:19:40.041Z,56.00
2018-07-11T13:22:08.248Z,56.00
2018-07-11T13:24:36.468Z,56.30
2018-07-11T13:27:04.696Z,55.00
2018-07-11T13:29:32.920Z,57.20
2018-07-11T13:32:01.139Z,55.40
2018-07-11T13:34:29.329Z,55.10
2018-07-11T13:36:57.523Z,55.10
2018-07-11T13:39:25.716Z,57.20
2018-07-11T13:41:53.934Z,52.90
2018-07-11T13:44:22.136Z,57.40
2018-07-11T13:46:50.331Z,54.60
2018-07-11T13:49:18.501Z,54.60
2018-07-11T13:51:46.671Z,55.90
2018-07-11T13:54:14.842Z,57.80
2018-07-11T13:56:43.052Z,55.60
2018-07-11T13:59:11.234Z,54.90
2018-07-11T14:01:40.725Z,56.60
2018-07-11T14:04:12.881Z,57.00
2018-07-11T14:06:41.336Z,56.80
2018-07-11T14:09:09.598Z,56.00
2018-07-11T14:11:40.133Z,55.80
2018-07-11T14:14:08.338Z,56.80
2018-07-11T14:16:36.516Z,56.00
2018-07-11T14:19:04.675Z,54.70
2018-07-11T14:21:32.873Z,55.10
2018-07-11T14:24:01.092Z,57.20
2018-07-11T14:26:29.305Z,52.30
2018-07-11T14:28:57.683Z,54.60
2018-07-11T14:31:32.560Z,54.50
2018-07-11T14:34:01.817Z,55.30
2018-07-11T14:36:30.726Z,57.40
2018-07-11T14:38:59.085Z,54.70
2018-07-11T14:41:27.285Z,56.20
2018-07-11T14:43:56.357Z,54.10
2018-07-11T14:46:27.814Z,56.00
2018-07-11T14:48:56.115Z,54.80
2018-07-11T14:51:24.992Z,55.60
2018-07-11T14:53:54.379Z,53.70
2018-07-11T14:56:23.802Z,56.50
2018-07-11T14:58:53.958Z,54.50
2018-07-11T15:01:34.030Z,56.10
2018-07-11T15:04:02.978Z,54.30
2018-07-11T15:06:32.059Z,56.00
2018-07-11T15:11:33.461Z,56.60
2018-07-11T15:14:02.710Z,53.70
2018-07-11T15:16:34.451Z,52.60
2018-07-11T15:19:23.262Z,54.90
2018-07-11T15:21:51.496Z,55.50
2018-07-11T15:24:20.803Z,54.70
2018-07-11T15:26:49.312Z,54.50
2018-07-11T15:29:17.818Z,54.90
2018-07-11T15:31:46.152Z,54.10
2018-07-11T15:34:14.405Z,53.90
2018-07-11T15:36:42.793Z,53.60
2018-07-11T15:39:11.089Z,54.80
2018-07-11T15:41:39.304Z,53.50
2018-07-11T15:44:07.523Z,52.80
2018-07-11T15:46:35.968Z,52.80
2018-07-11T15:49:04.592Z,53.70
2018-07-11T15:51:33.003Z,52.60
2018-07-11T15:54:01.235Z,54.30
2018-07-11T15:56:29.469Z,54.70
2018-07-11T15:59:07.685Z,56.10
2018-07-11T16:02:09.099Z,55.50
2018-07-11T16:04:40.222Z,53.60
2018-07-11T16:07:09.335Z,51.70
2018-07-11T16:09:59.738Z,51.70
2018-07-11T16:12:27.944Z,53.40
2018-07-11T16:14:56.894Z,52.70
2018-07-11T16:17:25.118Z,52.10
2018-07-11T16:19:53.362Z,53.20
2018-07-11T16:22:21.851Z,53.30
2018-07-11T16:24:51.478Z,54.10
2018-07-11T16:27:20.446Z,55.00
2018-07-11T16:29:48.693Z,55.10
2018-07-11T16:32:17.098Z,56.60
2018-07-11T16:34:46.112Z,55.70
2018-07-11T16:37:15.058Z,55.80
2018-07-11T16:39:43.607Z,55.60
2018-07-11T16:42:11.910Z,55.70
2018-07-11T16:44:40.130Z,56.20
2018-07-11T16:47:08.439Z,54.30
2018-07-11T16:49:40.017Z,55.90
2018-07-11T16:52:08.277Z,54.50
2018-07-11T16:54:36.530Z,55.30
2018-07-11T16:57:05.517Z,55.30
2018-07-11T16:59:43.271Z,54.30
2018-07-11T17:02:11.674Z,55.00
2018-07-11T17:04:40.235Z,56.00
2018-07-11T17:07:11.357Z,56.00
2018-07-11T17:09:44.362Z,55.10
2018-07-11T17:12:13.878Z,55.70
2018-07-11T17:14:44.837Z,55.80
2018-07-11T17:17:13.019Z,54.20
2018-07-11T17:19:54.223Z,54.40
2018-07-11T17:22:26.887Z,55.00
2018-07-11T17:24:55.062Z,56.00
2018-07-11T17:27:23.783Z,55.60
2018-07-11T17:29:52.328Z,55.40
2018-07-11T17:32:20.806Z,55.10
2018-07-11T17:34:48.982Z,55.50
2018-07-11T17:37:19.781Z,54.90
2018-07-11T17:39:57.583Z,56.60
2018-07-11T17:42:27.076Z,54.70
2018-07-11T17:45:03.965Z,54.10
2018-07-11T17:47:34.874Z,53.10
2018-07-11T17:50:04.684Z,53.90
2018-07-11T17:52:42.121Z,56.80
2018-07-11T17:55:16.536Z,56.20
2018-07-11T17:57:54.944Z,55.90
2018-07-11T18:00:38.582Z,53.50
2018-07-11T18:03:22.539Z,54.60
2018-07-11T18:05:56.178Z,54.40
2018-07-11T18:08:30.061Z,55.40
2018-07-11T18:10:58.533Z,54.90
2018-07-11T18:13:33.572Z,56.70
2018-07-11T18:17:11.541Z,54.80
2018-07-11T18:19:55.272Z,55.70
2018-07-11T18:22:33.423Z,56.70
2018-07-11T18:25:09.808Z,57.80
2018-07-11T18:27:49.627Z,55.60
2018-07-11T18:32:34.946Z,55.20
2018-07-11T18:36:19.384Z,56.50
2018-07-11T18:38:55.455Z,57.60
2018-07-11T18:42:38.282Z,55.50
2018-07-11T18:45:14.912Z,56.50
2018-07-11T18:47:57.571Z,58.20
2018-07-11T18:51:40.083Z,58.40
2018-07-11T18:54:10.934Z,56.20
2018-07-11T18:56:49.464Z,58.70
2018-07-11T18:59:29.136Z,58.40
2018-07-11T19:04:08.127Z,59.40
2018-07-11T19:06:42.119Z,60.50
2018-07-11T19:09:12.394Z,62.30
2018-07-11T19:11:54.820Z,61.30
2018-07-11T19:14:35.777Z,61.70
2018-07-11T19:17:09.104Z,65.50
2018-07-11T19:22:01.179Z,66.80
2018-07-11T19:24:56.762Z,68.30
2018-07-11T19:27:33.060Z,62.50
2018-07-11T19:30:12.892Z,62.30
2018-07-11T19:33:12.225Z,62.60
2018-07-11T19:35:49.432Z,63.10
2018-07-11T19:38:32.547Z,63.60
2018-07-11T19:41:20.776Z,63.80
2018-07-11T19:46:03.466Z,64.20
2018-07-11T19:50:51.645Z,65.00
2018-07-11T19:55:32.943Z,65.90
2018-07-11T19:58:01.160Z,66.70
2018-07-11T20:00:29.351Z,68.30
2018-07-11T20:02:57.574Z,68.50
2018-07-11T20:05:25.763Z,68.80
2018-07-11T20:07:53.962Z,69.50
2018-07-11T20:10:22.156Z,69.30
2018-07-11T20:12:50.431Z,69.30
2018-07-11T20:15:19.088Z,70.20
2018-07-11T20:17:47.255Z,70.50
2018-07-11T20:20:15.479Z,70.90
2018-07-11T20:22:43.676Z,70.30
2018-07-11T20:25:11.856Z,70.60
2018-07-11T20:27:40.048Z,70.70
2018-07-11T20:30:09.223Z,69.80
2018-07-11T20:32:37.395Z,70.40
2018-07-11T20:35:05.580Z,71.50
2018-07-11T20:37:33.801Z,72.00
2018-07-11T20:40:01.990Z,70.60
2018-07-11T20:42:30.193Z,71.50
2018-07-11T20:47:33.271Z,70.30
2018-07-11T20:50:01.469Z,69.70
2018-07-11T20:52:29.655Z,71.00
2018-07-11T20:54:57.825Z,72.20
2018-07-11T20:57:26.092Z,72.20
2018-07-11T21:00:05.479Z,71.30
2018-07-11T21:02:44.915Z,71.70
2018-07-11T21:05:24.486Z,72.60
2018-07-11T21:08:08.372Z,73.80
2018-07-11T21:10:47.719Z,74.30
2018-07-11T21:13:27.163Z,75.30
2018-07-11T21:16:39.380Z,76.00
2018-07-11T21:19:09.680Z,73.20
2018-07-11T21:21:38.720Z,75.20
2018-07-11T21:24:07.818Z,74.10
2018-07-11T21:26:36.378Z,75.60
2018-07-11T21:29:04.635Z,76.60
2018-07-11T21:31:32.830Z,75.70
2018-07-11T21:34:01.031Z,76.20
2018-07-11T21:36:29.204Z,74.10
2018-07-11T21:38:57.386Z,74.40
2018-07-11T21:41:25.561Z,76.90
2018-07-11T21:43:53.790Z,75.00
2018-07-11T21:46:22.041Z,74.60
2018-07-11T21:48:52.071Z,77.00
2018-07-11T21:51:20.243Z,75.90
2018-07-11T21:53:48.483Z,76.50
2018-07-11T21:56:16.636Z,78.50
2018-07-11T21:58:44.789Z,78.30
2018-07-11T22:01:13.175Z,78.30
2018-07-11T22:03:41.924Z,77.20
2018-07-11T22:06:10.084Z,75.50
2018-07-11T22:08:38.248Z,76.00
2018-07-11T22:11:06.404Z,74.70
2018-07-11T22:13:34.556Z,77.60
2018-07-11T22:16:02.704Z,77.90
2018-07-11T22:18:41.425Z,78.80
2018-07-11T22:21:09.696Z,79.10
2018-07-11T22:23:36.953Z,80.10
2018-07-11T22:26:04.178Z,80.60
2018-07-11T22:28:31.364Z,81.50
2018-07-11T22:30:58.571Z,80.00
2018-07-11T22:33:25.752Z,82.70
2018-07-11T22:35:52.945Z,83.40
2018-07-11T22:38:20.123Z,82.60
2018-07-11T22:40:47.344Z,80.90
2018-07-11T22:43:14.524Z,81.00
2018-07-11T22:45:41.727Z,81.60
2018-07-11T22:48:08.899Z,81.90
2018-07-11T22:50:36.120Z,81.70
2018-07-11T22:53:03.253Z,82.70
2018-07-11T22:55:30.443Z,85.60
2018-07-11T22:58:03.879Z,84.10
2018-07-11T23:00:31.062Z,81.90
2018-07-11T23:02:58.243Z,81.30
2018-07-11T23:05:25.436Z,80.70
2018-07-11T23:07:52.619Z,80.10
2018-07-11T23:10:19.812Z,79.20
2018-07-11T23:12:46.996Z,79.40
2018-07-11T23:15:14.189Z,79.40
2018-07-11T23:17:41.368Z,81.00
2018-07-11T23:20:08.562Z,81.20
2018-07-11T23:22:35.741Z,83.30
2018-07-11T23:25:02.926Z,84.70
2018-07-11T23:27:30.108Z,83.50
2018-07-11T23:29:57.293Z,84.30
2018-07-11T23:32:24.485Z,82.40
2018-07-11T23:34:51.665Z,84.20
2018-07-11T23:37:18.883Z,83.80
2018-07-11T23:39:46.068Z,84.00
2018-07-11T23:42:13.263Z,83.30
2018-07-11T23:44:40.441Z,85.80
2018-07-11T23:47:07.622Z,86.60
2018-07-11T23:49:34.799Z,87.20
2018-07-11T23:52:01.990Z,87.20
2018-07-11T23:54:29.183Z,88.50
2018-07-11T23:56:56.369Z,87.40
2018-07-11T23:59:23.560Z,88.20
